createdAt,value
2019-01-16T00:01:41.601Z,78.48
2019-01-16T00:04:47.804Z,78.12
2019-01-16T00:07:34.797Z,78.37
2019-01-16T00:10:23.255Z,78.94
2019-01-16T00:12:58.445Z,78.86
2019-01-16T00:15:45.176Z,78.96
2019-01-16T00:18:31.958Z,78.79
2019-01-16T00:21:15.323Z,78.72
2019-01-16T00:24:01.393Z,78.72
2019-01-16T00:26:55.735Z,78.68
2019-01-16T00:29:42.525Z,78.83
2019-01-16T00:32:33.322Z,78.50
2019-01-16T00:35:19.965Z,78.81
2019-01-16T00:38:08.055Z,79.08
2019-01-16T00:41:14.275Z,78.76
2019-01-16T00:44:02.320Z,78.69
2019-01-16T00:47:09.535Z,78.60
2019-01-16T00:49:57.506Z,78.84
2019-01-16T00:52:48.308Z,79.55
2019-01-16T00:55:34.902Z,79.43
2019-01-16T00:58:28.324Z,79.52
2019-01-16T01:01:11.801Z,79.74
2019-01-16T01:03:58.665Z,80.05
2019-01-16T01:06:45.265Z,79.99
2019-01-16T01:09:27.435Z,79.43
2019-01-16T01:12:21.992Z,79.48
2019-01-16T01:15:15.764Z,79.58
2019-01-16T01:18:06.957Z,79.74
2019-01-16T01:21:00.984Z,79.50
2019-01-16T01:23:47.601Z,79.32
2019-01-16T01:26:38.670Z,79.32
2019-01-16T01:29:35.879Z,79.79
2019-01-16T01:32:36.293Z,79.49
2019-01-16T01:35:36.539Z,79.97
2019-01-16T01:38:30.878Z,79.51
2019-01-16T01:41:28.200Z,79.79
2019-01-16T01:44:12.856Z,79.72
2019-01-16T01:47:13.004Z,79.59
2019-01-16T01:50:19.414Z,79.47
2019-01-16T01:53:10.246Z,79.38
2019-01-16T01:55:58.249Z,79.52
2019-01-16T01:59:01.728Z,79.52
2019-01-16T02:01:48.307Z,79.24
2019-01-16T02:04:45.179Z,79.67
2019-01-16T02:07:31.983Z,79.87
2019-01-16T02:10:26.749Z,80.08
2019-01-16T02:13:20.872Z,80.08
2019-01-16T02:15:58.348Z,80.07
2019-01-16T02:19:01.820Z,80.13
2019-01-16T02:21:49.855Z,79.52
2019-01-16T02:24:32.119Z,79.84
2019-01-16T02:27:20.857Z,79.88
2019-01-16T02:30:07.343Z,80.08
2019-01-16T02:32:58.473Z,80.00
2019-01-16T02:35:44.838Z,80.28
2019-01-16T02:38:42.136Z,79.89
2019-01-16T02:41:20.711Z,79.81
2019-01-16T02:44:11.515Z,79.62
2019-01-16T02:46:58.169Z,80.05
2019-01-16T02:49:44.803Z,79.98
2019-01-16T02:52:31.710Z,79.99
2019-01-16T02:55:31.604Z,79.97
2019-01-16T02:58:25.168Z,79.64
2019-01-16T03:01:15.947Z,80.13
2019-01-16T03:04:03.922Z,79.99
2019-01-16T03:06:50.718Z,79.85
2019-01-16T03:09:38.765Z,79.89
2019-01-16T03:12:45.131Z,79.78
2019-01-16T03:15:33.156Z,80.59
2019-01-16T03:18:24.063Z,80.36
2019-01-16T03:21:10.892Z,80.44
2019-01-16T03:23:58.037Z,81.25
2019-01-16T03:26:49.260Z,82.44
2019-01-16T03:29:52.698Z,82.44
2019-01-16T03:32:58.824Z,83.72
2019-01-16T03:35:56.755Z,83.54
2019-01-16T03:38:43.569Z,83.26
2019-01-16T03:41:28.490Z,83.37
2019-01-16T03:44:19.347Z,83.55
2019-01-16T03:46:56.545Z,83.20
2019-01-16T03:49:43.435Z,83.58
2019-01-16T03:52:34.503Z,82.99
2019-01-16T03:55:31.596Z,83.09
2019-01-16T03:58:22.428Z,83.16
2019-01-16T04:01:09.217Z,83.54
2019-01-16T04:04:03.114Z,83.51
2019-01-16T04:06:48.879Z,83.61
2019-01-16T04:09:39.905Z,83.23
2019-01-16T04:12:32.349Z,83.26
2019-01-16T04:15:26.203Z,83.08
2019-01-16T04:18:14.177Z,83.47
2019-01-16T04:21:05.214Z,83.42
2019-01-16T04:23:42.742Z,83.18
2019-01-16T04:26:46.153Z,83.37
2019-01-16T04:29:32.751Z,82.67
2019-01-16T04:32:38.875Z,82.68
2019-01-16T04:35:35.880Z,82.73
2019-01-16T04:38:30.259Z,82.71
2019-01-16T04:41:18.379Z,82.84
2019-01-16T04:44:06.455Z,82.91
2019-01-16T04:47:00.645Z,82.30
2019-01-16T04:49:51.689Z,81.70
2019-01-16T04:52:46.005Z,81.60
2019-01-16T04:55:34.013Z,80.87
2019-01-16T04:58:24.873Z,80.87
2019-01-16T05:01:05.249Z,80.09
2019-01-16T05:04:11.454Z,79.94
2019-01-16T05:07:02.373Z,79.86
2019-01-16T05:09:42.293Z,79.69
2019-01-16T05:12:48.709Z,79.64
2019-01-16T05:15:37.521Z,79.07
2019-01-16T05:18:32.967Z,78.94
2019-01-16T05:21:24.420Z,78.80
2019-01-16T05:24:22.432Z,78.10
2019-01-16T05:27:10.902Z,77.83
2019-01-16T05:30:16.074Z,77.87
2019-01-16T05:33:04.253Z,77.04
2019-01-16T05:35:53.119Z,77.17
2019-01-16T05:38:43.896Z,77.31
2019-01-16T05:41:36.847Z,77.13
2019-01-16T05:44:33.914Z,76.81
2019-01-16T05:47:22.017Z,76.77
2019-01-16T05:50:22.409Z,76.34
2019-01-16T05:53:13.419Z,75.48
2019-01-16T05:56:19.524Z,76.12
2019-01-16T05:59:16.754Z,75.78
2019-01-16T06:02:14.740Z,75.10
2019-01-16T06:05:11.735Z,75.51
2019-01-16T06:08:02.839Z,75.40
2019-01-16T06:10:51.778Z,75.14
2019-01-16T06:13:49.071Z,74.69
2019-01-16T06:16:45.553Z,74.83
2019-01-16T06:19:32.018Z,74.26
2019-01-16T06:22:18.624Z,74.94
2019-01-16T06:25:10.015Z,74.62
2019-01-16T06:28:10.653Z,74.28
2019-01-16T06:31:04.778Z,74.11
2019-01-16T06:34:00.572Z,74.52
2019-01-16T06:37:08.180Z,74.17
2019-01-16T06:39:56.211Z,74.19
2019-01-16T06:42:44.359Z,74.00
2019-01-16T06:45:32.419Z,73.71
2019-01-16T06:48:32.877Z,74.15
2019-01-16T06:51:29.456Z,73.38
2019-01-16T06:54:28.212Z,73.60
2019-01-16T06:57:13.104Z,73.71
2019-01-16T07:00:16.273Z,73.09
2019-01-16T07:03:10.134Z,73.64
2019-01-16T07:05:52.426Z,73.56
2019-01-16T07:08:35.792Z,73.44
2019-01-16T07:11:23.821Z,73.73
2019-01-16T07:14:10.769Z,73.13
2019-01-16T07:17:07.822Z,73.34
2019-01-16T07:20:09.408Z,73.36
2019-01-16T07:22:51.507Z,73.23
2019-01-16T07:25:38.152Z,73.38
2019-01-16T07:28:33.905Z,73.01
2019-01-16T07:31:20.565Z,72.56
2019-01-16T07:34:14.550Z,72.59
2019-01-16T07:37:05.815Z,72.31
2019-01-16T07:39:45.216Z,72.28
2019-01-16T07:42:32.095Z,72.22
2019-01-16T07:45:18.053Z,72.45
2019-01-16T07:48:05.862Z,71.85
2019-01-16T07:50:52.882Z,72.02
2019-01-16T07:53:53.349Z,72.06
2019-01-16T07:56:53.411Z,71.95
2019-01-16T07:59:40.329Z,71.77
2019-01-16T08:02:25.135Z,71.83
2019-01-16T08:05:12.105Z,71.77
2019-01-16T08:08:06.519Z,71.11
2019-01-16T08:11:06.539Z,71.09
2019-01-16T08:13:46.607Z,71.25
2019-01-16T08:16:37.724Z,71.38
2019-01-16T08:19:28.525Z,71.57
2019-01-16T08:22:25.873Z,71.08
2019-01-16T08:25:02.023Z,71.33
2019-01-16T08:27:56.203Z,70.71
2019-01-16T08:30:43.068Z,70.69
2019-01-16T08:33:46.523Z,70.60
2019-01-16T08:36:27.930Z,70.54
2019-01-16T08:39:34.705Z,70.52
2019-01-16T08:42:21.669Z,69.90
2019-01-16T08:45:12.451Z,69.91
2019-01-16T08:47:59.329Z,69.73
2019-01-16T08:50:46.124Z,69.73
2019-01-16T08:53:33.126Z,69.41
2019-01-16T08:56:11.871Z,69.80
2019-01-16T08:58:58.823Z,69.54
2019-01-16T09:01:56.543Z,69.46
2019-01-16T09:04:56.611Z,69.38
2019-01-16T09:31:37.118Z,68.80
2019-01-16T09:34:25.174Z,68.56
2019-01-16T09:37:13.219Z,69.38
2019-01-16T09:39:54.658Z,68.87
2019-01-16T09:42:41.296Z,68.73
2019-01-16T09:45:32.417Z,67.39
2019-01-16T09:48:32.693Z,67.90
2019-01-16T09:51:30.155Z,68.20
2019-01-16T09:54:26.781Z,68.03
2019-01-16T09:57:14.172Z,68.09
2019-01-16T10:00:05.301Z,68.10
2019-01-16T10:03:11.792Z,67.65
2019-01-16T10:05:56.935Z,67.17
2019-01-16T10:09:00.291Z,68.15
2019-01-16T10:11:57.256Z,67.21
2019-01-16T10:14:51.260Z,67.76
2019-01-16T10:17:38.039Z,66.93
2019-01-16T10:20:21.925Z,67.40
2019-01-16T10:23:10.143Z,67.16
2019-01-16T10:26:04.413Z,67.45
2019-01-16T10:28:48.710Z,67.44
2019-01-16T10:31:42.643Z,67.28
2019-01-16T10:34:36.561Z,67.58
2019-01-16T10:37:23.158Z,67.62
2019-01-16T10:40:17.250Z,67.46
2019-01-16T10:43:07.856Z,67.68
2019-01-16T10:46:10.871Z,66.93
2019-01-16T10:48:53.841Z,67.64
2019-01-16T10:52:00.274Z,67.20
2019-01-16T10:54:51.127Z,67.32
2019-01-16T10:57:49.742Z,67.15
2019-01-16T11:00:31.306Z,67.62
2019-01-16T11:03:25.425Z,67.45
2019-01-16T11:06:11.959Z,67.59
2019-01-16T11:09:09.081Z,66.62
2019-01-16T11:12:03.204Z,67.07
2019-01-16T11:14:46.139Z,66.38
2019-01-16T11:17:34.162Z,66.40
2019-01-16T11:20:15.145Z,66.13
2019-01-16T11:23:09.183Z,66.21
2019-01-16T11:26:12.275Z,65.72
2019-01-16T11:29:05.869Z,65.17
2019-01-16T11:31:53.890Z,65.42
2019-01-16T11:34:40.391Z,65.39
2019-01-16T11:37:31.510Z,64.92
2019-01-16T11:40:19.632Z,65.04
2019-01-16T11:43:13.913Z,64.75
2019-01-16T11:46:07.799Z,65.09
2019-01-16T11:49:05.897Z,64.35
2019-01-16T11:52:05.954Z,64.31
2019-01-16T11:54:52.660Z,64.71
2019-01-16T11:57:34.923Z,64.37
2019-01-16T12:00:29.071Z,64.63
2019-01-16T12:03:17.119Z,64.37
2019-01-16T12:06:03.886Z,63.94
2019-01-16T12:08:56.498Z,64.38
2019-01-16T12:11:34.426Z,63.41
2019-01-16T12:14:25.440Z,64.29
2019-01-16T12:17:22.712Z,63.53
2019-01-16T12:20:09.311Z,64.36
2019-01-16T12:22:50.889Z,64.01
2019-01-16T12:25:48.036Z,63.14
2019-01-16T12:28:36.026Z,64.36
2019-01-16T12:31:10.582Z,64.36
2019-01-16T12:34:03.950Z,62.98
2019-01-16T12:37:07.368Z,63.44
2019-01-16T12:39:41.926Z,64.05
2019-01-16T12:42:36.272Z,63.75
2019-01-16T12:45:30.602Z,64.40
2019-01-16T12:48:24.683Z,64.45
2019-01-16T12:51:11.528Z,64.91
2019-01-16T12:53:58.156Z,63.98
2019-01-16T12:56:41.897Z,63.90
2019-01-16T12:59:32.389Z,65.23
2019-01-16T13:02:11.478Z,65.21
2019-01-16T13:05:17.574Z,64.85
2019-01-16T13:08:08.388Z,64.80
2019-01-16T13:10:59.459Z,65.09
2019-01-16T13:13:59.432Z,64.54
2019-01-16T13:16:45.909Z,65.31
2019-01-16T13:19:32.736Z,64.93
2019-01-16T13:22:23.964Z,65.15
2019-01-16T13:25:20.847Z,64.46
2019-01-16T13:28:06.533Z,63.80
2019-01-16T13:31:02.603Z,64.17
2019-01-16T13:33:56.777Z,64.65
2019-01-16T13:36:47.696Z,64.48
2019-01-16T13:39:33.780Z,65.19
2019-01-16T13:42:25.369Z,64.64
2019-01-16T13:45:23.243Z,64.27
2019-01-16T13:48:24.400Z,64.82
2019-01-16T13:51:05.140Z,64.49
2019-01-16T13:53:57.727Z,64.98
2019-01-16T13:56:43.299Z,64.54
2019-01-16T13:59:34.132Z,64.54
2019-01-16T14:02:28.411Z,65.28
2019-01-16T14:05:12.843Z,64.91
2019-01-16T14:08:09.771Z,64.25
2019-01-16T14:10:55.859Z,64.27
2019-01-16T14:13:42.565Z,64.60
2019-01-16T14:16:33.790Z,64.92
2019-01-16T14:19:21.919Z,65.47
2019-01-16T14:22:08.772Z,65.06
2019-01-16T14:25:05.969Z,65.99
2019-01-16T14:27:53.990Z,65.81
2019-01-16T14:30:37.080Z,65.01
2019-01-16T14:33:22.504Z,65.51
2019-01-16T14:36:02.694Z,65.40
2019-01-16T14:39:06.016Z,65.57
2019-01-16T14:41:45.143Z,65.29
2019-01-16T14:44:26.787Z,65.61
2019-01-16T14:58:57.369Z,65.46
2019-01-16T15:01:45.547Z,64.80
2019-01-16T15:04:33.658Z,65.86
2019-01-16T15:07:12.555Z,64.77
2019-01-16T15:10:12.692Z,65.21
2019-01-16T15:12:51.851Z,65.52
2019-01-16T15:15:37.607Z,65.67
2019-01-16T15:18:24.253Z,65.30
2019-01-16T15:21:21.218Z,65.98
2019-01-16T15:24:08.022Z,66.29
2019-01-16T15:26:59.247Z,66.04
2019-01-16T15:29:53.293Z,66.29
2019-01-16T15:32:46.830Z,66.37
2019-01-16T15:35:34.721Z,66.67
2019-01-16T15:38:18.112Z,66.60
2019-01-16T15:41:10.059Z,66.48
2019-01-16T15:44:01.351Z,66.78
2019-01-16T15:46:42.733Z,66.52
2019-01-16T15:49:46.054Z,66.63
2019-01-16T15:52:28.777Z,66.84
2019-01-16T15:55:21.832Z,66.75
2019-01-16T15:58:18.138Z,66.84
2019-01-16T16:01:02.859Z,66.37
2019-01-16T16:04:09.306Z,66.46
2019-01-16T16:06:57.458Z,66.60
2019-01-16T16:09:57.645Z,66.88
2019-01-16T16:12:51.622Z,66.06
2019-01-16T16:15:38.118Z,66.66
2019-01-16T16:18:34.552Z,66.42
2019-01-16T16:21:21.448Z,66.58
2019-01-16T16:24:07.639Z,67.14
2019-01-16T16:27:04.962Z,66.99
2019-01-16T16:29:58.974Z,66.74
2019-01-16T16:32:53.251Z,66.36
2019-01-16T16:35:51.537Z,67.39
2019-01-16T16:38:45.921Z,67.16
2019-01-16T16:41:29.181Z,66.75
2019-01-16T16:44:21.982Z,66.60
2019-01-16T16:47:28.615Z,67.29
2019-01-16T16:50:30.625Z,67.61
2019-01-16T16:53:31.389Z,67.56
2019-01-16T16:56:13.394Z,68.12
2019-01-16T16:59:07.405Z,67.71
2019-01-16T17:01:54.106Z,67.56
2019-01-16T17:04:45.099Z,67.92
2019-01-16T17:07:33.861Z,67.42
2019-01-16T17:10:32.181Z,67.67
2019-01-16T17:13:16.128Z,67.18
2019-01-16T17:16:02.643Z,66.94
2019-01-16T17:18:52.096Z,67.16
2019-01-16T17:21:38.504Z,67.16
2019-01-16T17:24:17.984Z,67.17
2019-01-16T17:27:09.260Z,67.81
2019-01-16T17:30:05.837Z,67.47
2019-01-16T17:32:53.953Z,67.38
2019-01-16T17:35:48.041Z,67.47
2019-01-16T17:38:24.392Z,67.67
2019-01-16T17:41:22.391Z,67.60
2019-01-16T17:44:09.493Z,66.64
2019-01-16T17:46:56.050Z,67.17
2019-01-16T17:49:53.397Z,67.88
2019-01-16T17:52:47.382Z,67.19
2019-01-16T17:55:35.393Z,67.21
2019-01-16T17:58:21.654Z,68.02
2019-01-16T18:01:08.450Z,67.83
2019-01-16T18:03:48.223Z,67.31
2019-01-16T18:06:36.306Z,67.76
2019-01-16T18:09:28.648Z,68.28
2019-01-16T18:12:29.066Z,67.93
2019-01-16T18:15:19.988Z,67.68
2019-01-16T18:18:11.005Z,67.79
2019-01-16T18:21:17.245Z,67.96
2019-01-16T18:24:03.902Z,67.83
2019-01-16T18:26:44.878Z,68.21
2019-01-16T18:29:31.591Z,68.07
2019-01-16T18:32:19.728Z,68.15
2019-01-16T18:35:10.723Z,67.70
2019-01-16T18:37:57.599Z,67.82
2019-01-16T18:40:57.851Z,68.12
2019-01-16T18:47:02.825Z,67.55
2019-01-16T18:49:51.063Z,67.56
2019-01-16T18:52:51.746Z,68.17
2019-01-16T18:55:44.379Z,67.80
2019-01-16T18:58:22.989Z,67.85
2019-01-16T19:01:08.640Z,67.95
2019-01-16T19:03:47.684Z,68.23
2019-01-16T19:06:35.905Z,67.82
2019-01-16T19:09:29.812Z,67.83
2019-01-16T19:12:17.995Z,68.23
2019-01-16T19:15:08.934Z,68.50
2019-01-16T19:17:55.611Z,68.41
2019-01-16T19:20:49.654Z,68.26
2019-01-16T19:23:49.699Z,68.45
2019-01-16T19:26:46.995Z,69.05
2019-01-16T19:29:30.998Z,68.97
2019-01-16T19:32:17.936Z,67.68
2019-01-16T19:35:05.475Z,68.69
2019-01-16T19:37:50.316Z,68.54
2019-01-16T19:40:37.201Z,68.21
2019-01-16T19:43:32.431Z,68.07
2019-01-16T19:46:35.938Z,67.84
2019-01-16T19:49:30.035Z,67.40
2019-01-16T19:52:16.636Z,67.92
2019-01-16T19:55:03.299Z,67.69
2019-01-16T19:57:51.398Z,67.52
2019-01-16T20:00:38.290Z,67.60
2019-01-16T20:03:32.431Z,67.88
2019-01-16T20:06:16.780Z,67.85
2019-01-16T20:09:18.104Z,67.35
2019-01-16T20:12:15.501Z,67.97
2019-01-16T20:15:02.246Z,67.06
2019-01-16T20:17:53.426Z,66.94
2019-01-16T20:20:36.423Z,67.33
2019-01-16T20:23:24.495Z,67.17
2019-01-16T20:26:12.521Z,67.68
2019-01-16T20:29:06.604Z,67.36
2019-01-16T20:31:57.407Z,68.08
2019-01-16T20:34:43.193Z,67.53
2019-01-16T20:37:40.324Z,68.13
2019-01-16T20:40:28.202Z,68.14
2019-01-16T20:43:10.682Z,68.30
2019-01-16T20:45:58.736Z,68.26
2019-01-16T20:48:52.066Z,68.34
2019-01-16T20:51:43.059Z,68.52
2019-01-16T20:54:28.179Z,68.19
2019-01-16T20:57:12.237Z,68.47
2019-01-16T21:00:12.355Z,68.72
2019-01-16T21:03:03.239Z,69.05
2019-01-16T21:06:03.561Z,68.68
2019-01-16T21:08:54.685Z,68.68
2019-01-16T21:11:41.310Z,69.13
2019-01-16T21:14:24.016Z,68.96
2019-01-16T21:17:10.919Z,69.01
2019-01-16T21:20:00.298Z,68.67
2019-01-16T21:22:42.558Z,69.13
2019-01-16T21:25:42.579Z,69.39
2019-01-16T21:28:30.614Z,69.14
2019-01-16T21:31:18.627Z,69.16
2019-01-16T21:34:05.144Z,69.61
2019-01-16T21:36:51.616Z,69.74
2019-01-16T21:39:45.671Z,69.61
2019-01-16T21:42:43.829Z,69.54
2019-01-16T21:45:31.845Z,69.17
2019-01-16T21:48:28.805Z,69.43
2019-01-16T21:51:26.071Z,69.85
2019-01-16T21:54:20.427Z,70.04
2019-01-16T21:57:03.719Z,69.59
2019-01-16T21:59:54.542Z,69.43
2019-01-16T22:02:48.507Z,70.05
2019-01-16T22:05:39.207Z,69.42
2019-01-16T22:08:42.327Z,69.61
2019-01-16T22:11:33.422Z,69.89
2019-01-16T22:14:25.803Z,69.90
2019-01-16T22:17:17.654Z,70.17
2019-01-16T22:20:11.864Z,70.21
2019-01-16T22:22:58.831Z,69.98
2019-01-16T22:25:42.068Z,69.89
2019-01-16T22:28:32.078Z,70.13
2019-01-16T22:31:11.109Z,70.42
2019-01-16T22:34:05.198Z,70.33
2019-01-16T22:36:49.022Z,70.76
2019-01-16T22:39:45.382Z,71.44
2019-01-16T22:42:22.939Z,71.05
2019-01-16T22:45:20.105Z,71.64
2019-01-16T22:48:10.866Z,72.05
2019-01-16T22:51:14.017Z,73.69
2019-01-16T22:54:17.423Z,74.03
2019-01-16T22:56:56.561Z,74.19
2019-01-16T22:59:43.513Z,74.61
2019-01-16T23:02:25.090Z,75.75
2019-01-16T23:05:13.088Z,76.22
2019-01-16T23:08:13.081Z,76.20
2019-01-16T23:11:08.390Z,76.12
2019-01-16T23:13:55.450Z,75.60
2019-01-16T23:16:39.167Z,75.37
2019-01-16T23:19:30.146Z,75.64
2019-01-16T23:22:16.862Z,78.27
2019-01-16T23:25:07.887Z,80.39
2019-01-16T23:28:07.371Z,81.68
2019-01-16T23:30:43.339Z,81.30
2019-01-16T23:33:30.060Z,81.75
2019-01-16T23:36:12.789Z,81.53
2019-01-16T23:38:51.972Z,81.54
2019-01-16T23:41:40.003Z,80.59
2019-01-16T23:44:28.043Z,80.32
2019-01-16T23:47:14.996Z,80.18
2019-01-16T23:50:01.681Z,79.83
2019-01-16T23:52:55.567Z,79.87
2019-01-16T23:55:46.610Z,80.03
2019-01-16T23:58:37.628Z,79.70
